sensor_id;sensor_type;location;lat;lon;timestamp;pressure;altitude;pressure_sealevel;temperature;humidity
77106;BME280;66057;54.718;18.426;2023-02-10T00:01:29;102380.16;;;0.49;79.19
77106;BME280;66057;54.718;18.426;2023-02-10T00:03:55;102381.13;;;0.58;79.26
77106;BME280;66057;54.718;18.426;2023-02-10T00:06:23;102404.38;;;0.63;79.36
77106;BME280;66057;54.718;18.426;2023-02-10T00:08:54;102390.59;;;0.68;79.09
77106;BME280;66057;54.718;18.426;2023-02-10T00:11:21;102385.69;;;0.69;78.92
77106;BME280;66057;54.718;18.426;2023-02-10T00:14:06;102392.41;;;0.69;79.90
77106;BME280;66057;54.718;18.426;2023-02-10T00:16:32;102393.13;;;0.68;79.89
77106;BME280;66057;54.718;18.426;2023-02-10T00:18:58;102394.38;;;0.71;79.46
77106;BME280;66057;54.718;18.426;2023-02-10T00:21:24;102400.16;;;0.70;80.19
77106;BME280;66057;54.718;18.426;2023-02-10T00:23:49;102390.44;;;0.66;79.22
77106;BME280;66057;54.718;18.426;2023-02-10T00:26:15;102394.63;;;0.66;79.79
77106;BME280;66057;54.718;18.426;2023-02-10T00:28:41;102422.50;;;0.74;79.39
77106;BME280;66057;54.718;18.426;2023-02-10T00:31:09;102423.66;;;0.69;79.64
77106;BME280;66057;54.718;18.426;2023-02-10T00:33:35;102410.59;;;0.73;80.21
77106;BME280;66057;54.718;18.426;2023-02-10T00:36:05;102420.31;;;0.77;80.04
77106;BME280;66057;54.718;18.426;2023-02-10T00:38:32;102420.97;;;0.83;80.55
77106;BME280;66057;54.718;18.426;2023-02-10T00:41:14;102421.84;;;0.84;79.84
77106;BME280;66057;54.718;18.426;2023-02-10T00:43:40;102411.00;;;0.85;79.85
77106;BME280;66057;54.718;18.426;2023-02-10T00:46:06;102406.84;;;0.85;79.63
77106;BME280;66057;54.718;18.426;2023-02-10T00:48:32;102397.69;;;0.95;80.23
77106;BME280;66057;54.718;18.426;2023-02-10T00:50:58;102383.94;;;0.93;80.21
77106;BME280;66057;54.718;18.426;2023-02-10T00:53:24;102380.69;;;0.94;80.00
77106;BME280;66057;54.718;18.426;2023-02-10T00:55:50;102359.78;;;0.87;79.85
77106;BME280;66057;54.718;18.426;2023-02-10T00:58:16;102353.34;;;0.82;80.87
77106;BME280;66057;54.718;18.426;2023-02-10T01:00:42;102364.44;;;0.92;80.76
77106;BME280;66057;54.718;18.426;2023-02-10T01:03:08;102353.75;;;0.94;80.97
77106;BME280;66057;54.718;18.426;2023-02-10T01:05:34;102344.19;;;0.92;81.04
77106;BME280;66057;54.718;18.426;2023-02-10T01:07:59;102326.47;;;0.92;81.22
77106;BME280;66057;54.718;18.426;2023-02-10T01:10:25;102346.16;;;0.94;81.25
77106;BME280;66057;54.718;18.426;2023-02-10T01:12:51;102337.75;;;0.86;81.87
77106;BME280;66057;54.718;18.426;2023-02-10T01:15:17;102326.16;;;0.88;81.54
77106;BME280;66057;54.718;18.426;2023-02-10T01:17:42;102318.09;;;0.84;82.09
77106;BME280;66057;54.718;18.426;2023-02-10T01:20:09;102324.06;;;0.84;82.56
77106;BME280;66057;54.718;18.426;2023-02-10T01:22:35;102328.84;;;0.90;83.14
77106;BME280;66057;54.718;18.426;2023-02-10T01:25:02;102317.66;;;0.88;82.16
77106;BME280;66057;54.718;18.426;2023-02-10T01:27:28;102301.56;;;0.87;82.24
77106;BME280;66057;54.718;18.426;2023-02-10T01:29:54;102327.69;;;0.95;82.85
77106;BME280;66057;54.718;18.426;2023-02-10T01:32:19;102326.81;;;0.95;82.36
77106;BME280;66057;54.718;18.426;2023-02-10T01:34:45;102335.91;;;1.01;82.54
77106;BME280;66057;54.718;18.426;2023-02-10T01:37:11;102326.06;;;0.96;81.84
77106;BME280;66057;54.718;18.426;2023-02-10T01:39:37;102324.00;;;1.00;82.44
77106;BME280;66057;54.718;18.426;2023-02-10T01:42:04;102313.41;;;0.96;82.67
77106;BME280;66057;54.718;18.426;2023-02-10T01:46:55;102296.69;;;0.89;83.29
77106;BME280;66057;54.718;18.426;2023-02-10T01:49:27;102306.63;;;0.87;83.20
77106;BME280;66057;54.718;18.426;2023-02-10T01:51:54;102304.16;;;0.96;83.35
77106;BME280;66057;54.718;18.426;2023-02-10T01:54:25;102309.72;;;1.01;83.60
77106;BME280;66057;54.718;18.426;2023-02-10T01:56:53;102293.16;;;0.96;83.90
77106;BME280;66057;54.718;18.426;2023-02-10T01:59:20;102288.16;;;1.04;83.59
77106;BME280;66057;54.718;18.426;2023-02-10T02:01:49;102286.66;;;1.06;83.55
77106;BME280;66057;54.718;18.426;2023-02-10T02:04:15;102275.63;;;1.06;83.58
77106;BME280;66057;54.718;18.426;2023-02-10T02:06:41;102280.31;;;1.18;83.35
77106;BME280;66057;54.718;18.426;2023-02-10T02:09:08;102273.41;;;1.09;83.40
77106;BME280;66057;54.718;18.426;2023-02-10T02:14:22;102286.47;;;1.29;83.30
77106;BME280;66057;54.718;18.426;2023-02-10T02:25:18;102257.47;;;1.43;83.06
77106;BME280;66057;54.718;18.426;2023-02-10T02:33:19;102252.97;;;1.40;82.99
77106;BME280;66057;54.718;18.426;2023-02-10T02:35:55;102242.38;;;1.36;84.12
77106;BME280;66057;54.718;18.426;2023-02-10T02:38:25;102235.84;;;1.38;83.57
77106;BME280;66057;54.718;18.426;2023-02-10T02:40:51;102232.59;;;1.47;83.73
77106;BME280;66057;54.718;18.426;2023-02-10T02:43:16;102234.34;;;1.40;84.40
77106;BME280;66057;54.718;18.426;2023-02-10T02:48:42;102237.06;;;1.50;83.52
77106;BME280;66057;54.718;18.426;2023-02-10T02:57:08;102246.63;;;1.52;84.17
77106;BME280;66057;54.718;18.426;2023-02-10T02:59:40;102239.16;;;1.45;84.17
77106;BME280;66057;54.718;18.426;2023-02-10T03:02:11;102250.97;;;1.53;84.49
77106;BME280;66057;54.718;18.426;2023-02-10T03:04:38;102220.84;;;1.48;84.70
77106;BME280;66057;54.718;18.426;2023-02-10T03:07:04;102219.78;;;1.46;84.34
77106;BME280;66057;54.718;18.426;2023-02-10T03:09:30;102259.03;;;1.58;84.34
77106;BME280;66057;54.718;18.426;2023-02-10T03:11:57;102250.53;;;1.57;84.13
77106;BME280;66057;54.718;18.426;2023-02-10T03:14:22;102266.75;;;1.59;84.59
77106;BME280;66057;54.718;18.426;2023-02-10T03:16:48;102269.63;;;1.71;83.31
77106;BME280;66057;54.718;18.426;2023-02-10T03:19:14;102253.81;;;1.73;83.33
77106;BME280;66057;54.718;18.426;2023-02-10T03:21:40;102256.81;;;1.78;84.37
77106;BME280;66057;54.718;18.426;2023-02-10T03:24:06;102267.41;;;1.83;83.56
77106;BME280;66057;54.718;18.426;2023-02-10T03:26:33;102275.94;;;1.92;83.34
77106;BME280;66057;54.718;18.426;2023-02-10T03:28:58;102271.63;;;1.91;83.01
77106;BME280;66057;54.718;18.426;2023-02-10T03:31:24;102251.47;;;1.84;83.45
77106;BME280;66057;54.718;18.426;2023-02-10T03:33:50;102253.88;;;1.91;83.27
77106;BME280;66057;54.718;18.426;2023-02-10T03:36:16;102278.34;;;1.99;83.81
77106;BME280;66057;54.718;18.426;2023-02-10T03:38:41;102266.25;;;1.96;83.21
77106;BME280;66057;54.718;18.426;2023-02-10T03:41:07;102267.00;;;1.95;82.99
77106;BME280;66057;54.718;18.426;2023-02-10T03:43:33;102273.88;;;1.96;83.13
77106;BME280;66057;54.718;18.426;2023-02-10T03:46:00;102271.63;;;1.99;83.40
77106;BME280;66057;54.718;18.426;2023-02-10T03:48:26;102266.25;;;1.96;82.71
77106;BME280;66057;54.718;18.426;2023-02-10T03:51:01;102266.41;;;2.06;83.81
77106;BME280;66057;54.718;18.426;2023-02-10T03:53:28;102268.47;;;2.02;83.56
77106;BME280;66057;54.718;18.426;2023-02-10T03:55:54;102284.91;;;2.14;83.28
77106;BME280;66057;54.718;18.426;2023-02-10T03:58:20;102304.91;;;2.11;83.32
77106;BME280;66057;54.718;18.426;2023-02-10T04:00:46;102287.28;;;2.12;83.91
77106;BME280;66057;54.718;18.426;2023-02-10T04:03:12;102276.88;;;2.09;83.37
77106;BME280;66057;54.718;18.426;2023-02-10T04:05:37;102300.59;;;2.18;83.72
77106;BME280;66057;54.718;18.426;2023-02-10T04:08:03;102270.44;;;2.13;84.46
77106;BME280;66057;54.718;18.426;2023-02-10T04:10:29;102299.69;;;2.18;84.98
77106;BME280;66057;54.718;18.426;2023-02-10T04:12:55;102295.81;;;2.13;84.89
77106;BME280;66057;54.718;18.426;2023-02-10T04:15:21;102296.69;;;2.13;84.56
77106;BME280;66057;54.718;18.426;2023-02-10T04:17:46;102300.88;;;2.13;84.97
77106;BME280;66057;54.718;18.426;2023-02-10T04:20:12;102279.56;;;2.11;84.18
77106;BME280;66057;54.718;18.426;2023-02-10T04:22:38;102279.41;;;2.09;84.97
77106;BME280;66057;54.718;18.426;2023-02-10T04:25:05;102298.63;;;2.16;84.94
77106;BME280;66057;54.718;18.426;2023-02-10T04:27:30;102298.34;;;2.13;85.77
77106;BME280;66057;54.718;18.426;2023-02-10T04:29:56;102311.91;;;2.13;86.47
77106;BME280;66057;54.718;18.426;2023-02-10T04:32:22;102306.84;;;2.13;86.15
77106;BME280;66057;54.718;18.426;2023-02-10T04:34:48;102275.66;;;2.06;86.93
77106;BME280;66057;54.718;18.426;2023-02-10T04:37:13;102290.88;;;2.06;86.38
77106;BME280;66057;54.718;18.426;2023-02-10T04:39:39;102275.34;;;2.03;86.87
77106;BME280;66057;54.718;18.426;2023-02-10T04:42:05;102288.94;;;2.03;86.79
77106;BME280;66057;54.718;18.426;2023-02-10T04:44:31;102294.44;;;2.08;86.41
77106;BME280;66057;54.718;18.426;2023-02-10T04:46:56;102287.59;;;2.07;87.06
77106;BME280;66057;54.718;18.426;2023-02-10T04:49:25;102296.88;;;2.15;86.71
77106;BME280;66057;54.718;18.426;2023-02-10T04:51:51;102290.88;;;2.06;86.87
77106;BME280;66057;54.718;18.426;2023-02-10T04:54:16;102292.66;;;2.07;87.15
77106;BME280;66057;54.718;18.426;2023-02-10T04:56:42;102296.88;;;2.15;87.50
77106;BME280;66057;54.718;18.426;2023-02-10T04:59:08;102289.38;;;2.16;86.84
77106;BME280;66057;54.718;18.426;2023-02-10T05:01:34;102281.31;;;2.12;86.44
77106;BME280;66057;54.718;18.426;2023-02-10T05:04:00;102274.50;;;2.11;87.03
77106;BME280;66057;54.718;18.426;2023-02-10T05:06:26;102261.03;;;2.12;86.95
77106;BME280;66057;54.718;18.426;2023-02-10T05:08:52;102289.41;;;2.25;87.06
77106;BME280;66057;54.718;18.426;2023-02-10T05:11:18;102280.13;;;2.17;87.34
77106;BME280;66057;54.718;18.426;2023-02-10T05:13:44;102268.19;;;2.16;87.86
77106;BME280;66057;54.718;18.426;2023-02-10T05:16:12;102275.06;;;2.26;87.96
77106;BME280;66057;54.718;18.426;2023-02-10T05:18:38;102268.50;;;2.19;87.47
77106;BME280;66057;54.718;18.426;2023-02-10T05:21:09;102267.00;;;2.21;88.23
77106;BME280;66057;54.718;18.426;2023-02-10T05:23:35;102254.47;;;2.23;87.82
77106;BME280;66057;54.718;18.426;2023-02-10T05:26:02;102272.69;;;2.36;88.41
77106;BME280;66057;54.718;18.426;2023-02-10T05:28:28;102273.91;;;2.39;87.74
77106;BME280;66057;54.718;18.426;2023-02-10T05:30:54;102284.50;;;2.44;87.38
77106;BME280;66057;54.718;18.426;2023-02-10T05:33:20;102269.41;;;2.45;87.74
77106;BME280;66057;54.718;18.426;2023-02-10T05:35:45;102273.72;;;2.46;88.29
77106;BME280;66057;54.718;18.426;2023-02-10T05:38:11;102271.50;;;2.49;87.57
77106;BME280;66057;54.718;18.426;2023-02-10T05:40:38;102256.28;;;2.49;87.84
77106;BME280;66057;54.718;18.426;2023-02-10T05:43:04;102265.81;;;2.52;87.95
77106;BME280;66057;54.718;18.426;2023-02-10T05:45:30;102264.47;;;2.55;87.35
77106;BME280;66057;54.718;18.426;2023-02-10T05:47:56;102263.13;;;2.59;87.48
77106;BME280;66057;54.718;18.426;2023-02-10T05:50:21;102253.56;;;2.65;87.17
77106;BME280;66057;54.718;18.426;2023-02-10T05:52:47;102282.66;;;2.69;87.90
77106;BME280;66057;54.718;18.426;2023-02-10T05:55:13;102251.75;;;2.73;87.74
77106;BME280;66057;54.718;18.426;2023-02-10T05:57:38;102239.50;;;2.69;87.19
77106;BME280;66057;54.718;18.426;2023-02-10T06:00:06;102248.91;;;2.70;87.64
77106;BME280;66057;54.718;18.426;2023-02-10T06:02:32;102275.34;;;2.80;87.80
77106;BME280;66057;54.718;18.426;2023-02-10T06:04:57;102264.75;;;2.76;87.04
77106;BME280;66057;54.718;18.426;2023-02-10T06:07:23;102283.25;;;2.75;86.75
77106;BME280;66057;54.718;18.426;2023-02-10T06:09:49;102276.22;;;2.81;87.45
77106;BME280;66057;54.718;18.426;2023-02-10T06:12:14;102285.19;;;2.86;87.02
77106;BME280;66057;54.718;18.426;2023-02-10T06:14:40;102282.06;;;2.80;87.02
77106;BME280;66057;54.718;18.426;2023-02-10T06:17:06;102277.56;;;2.86;87.20
77106;BME280;66057;54.718;18.426;2023-02-10T06:19:38;102300.41;;;2.94;86.64
77106;BME280;66057;54.718;18.426;2023-02-10T06:22:05;102283.53;;;2.95;86.98
77106;BME280;66057;54.718;18.426;2023-02-10T06:24:31;102276.81;;;2.87;86.65
77106;BME280;66057;54.718;18.426;2023-02-10T06:26:57;102290.09;;;2.93;87.41
77106;BME280;66057;54.718;18.426;2023-02-10T06:29:23;102310.72;;;2.87;88.48
77106;BME280;66057;54.718;18.426;2023-02-10T06:31:49;102308.03;;;2.69;90.17
77106;BME280;66057;54.718;18.426;2023-02-10T06:34:15;102322.09;;;2.65;91.60
77106;BME280;66057;54.718;18.426;2023-02-10T06:36:41;102325.25;;;2.54;92.64
77106;BME280;66057;54.718;18.426;2023-02-10T06:39:07;102341.66;;;2.57;94.24
77106;BME280;66057;54.718;18.426;2023-02-10T06:41:33;102337.16;;;2.55;94.64
77106;BME280;66057;54.718;18.426;2023-02-10T06:43:59;102338.38;;;2.67;89.21
77106;BME280;66057;54.718;18.426;2023-02-10T06:46:25;102330.03;;;2.68;89.71
77106;BME280;66057;54.718;18.426;2023-02-10T06:48:51;102327.91;;;2.90;84.50
77106;BME280;66057;54.718;18.426;2023-02-10T06:51:17;102332.66;;;2.95;81.44
77106;BME280;66057;54.718;18.426;2023-02-10T06:53:42;102350.03;;;2.82;84.34
77106;BME280;66057;54.718;18.426;2023-02-10T06:56:09;102339.25;;;2.85;85.28
77106;BME280;66057;54.718;18.426;2023-02-10T06:58:35;102341.50;;;2.82;85.46
77106;BME280;66057;54.718;18.426;2023-02-10T07:01:06;102353.31;;;2.73;87.04
77106;BME280;66057;54.718;18.426;2023-02-10T07:03:32;102339.09;;;2.75;84.79
77106;BME280;66057;54.718;18.426;2023-02-10T07:05:57;102319.53;;;2.74;83.77
77106;BME280;66057;54.718;18.426;2023-02-10T07:08:23;102365.53;;;2.94;82.63
77106;BME280;66057;54.718;18.426;2023-02-10T07:10:49;102338.66;;;2.87;83.34
77106;BME280;66057;54.718;18.426;2023-02-10T07:13:15;102320.44;;;2.83;82.75
77106;BME280;66057;54.718;18.426;2023-02-10T07:15:40;102352.53;;;2.91;83.24
77106;BME280;66057;54.718;18.426;2023-02-10T07:18:07;102344.03;;;2.82;83.40
77106;BME280;66057;54.718;18.426;2023-02-10T07:20:33;102327.44;;;2.94;81.89
77106;BME280;66057;54.718;18.426;2023-02-10T07:22:59;102335.94;;;2.94;83.23
77106;BME280;66057;54.718;18.426;2023-02-10T07:25:25;102352.09;;;2.95;83.94
77106;BME280;66057;54.718;18.426;2023-02-10T07:27:50;102377.78;;;3.06;83.43
77106;BME280;66057;54.718;18.426;2023-02-10T07:30:16;102392.72;;;3.21;83.01
77106;BME280;66057;54.718;18.426;2023-02-10T07:32:42;102377.31;;;3.19;85.07
77106;BME280;66057;54.718;18.426;2023-02-10T07:35:10;102383.53;;;3.31;84.65
77106;BME280;66057;54.718;18.426;2023-02-10T07:37:37;102376.34;;;3.44;85.35
77106;BME280;66057;54.718;18.426;2023-02-10T07:40:04;102372.13;;;3.54;85.42
77106;BME280;66057;54.718;18.426;2023-02-10T07:42:29;102385.88;;;3.64;86.09
77106;BME280;66057;54.718;18.426;2023-02-10T07:44:58;102393.63;;;3.66;86.19
77106;BME280;66057;54.718;18.426;2023-02-10T07:47:24;102391.81;;;3.65;87.24
77106;BME280;66057;54.718;18.426;2023-02-10T07:49:49;102390.75;;;3.71;87.02
77106;BME280;66057;54.718;18.426;2023-02-10T07:52:20;102370.00;;;3.67;87.28
77106;BME280;66057;54.718;18.426;2023-02-10T07:54:46;102407.53;;;3.69;87.28
77106;BME280;66057;54.718;18.426;2023-02-10T07:57:11;102391.97;;;3.66;88.05
77106;BME280;66057;54.718;18.426;2023-02-10T07:59:37;102404.09;;;3.69;88.20
77106;BME280;66057;54.718;18.426;2023-02-10T08:02:04;102404.38;;;3.72;87.37
77106;BME280;66057;54.718;18.426;2023-02-10T08:04:30;102402.88;;;3.74;87.33
77106;BME280;66057;54.718;18.426;2023-02-10T08:06:55;102416.19;;;3.71;87.81
77106;BME280;66057;54.718;18.426;2023-02-10T08:09:22;102404.09;;;3.69;87.98
77106;BME280;66057;54.718;18.426;2023-02-10T08:11:47;102413.50;;;3.70;88.27
77106;BME280;66057;54.718;18.426;2023-02-10T08:14:13;102394.25;;;3.63;88.25
77106;BME280;66057;54.718;18.426;2023-02-10T08:16:39;102412.00;;;3.72;87.51
77106;BME280;66057;54.718;18.426;2023-02-10T08:19:05;102406.41;;;3.84;87.95
77106;BME280;66057;54.718;18.426;2023-02-10T08:21:31;102433.81;;;3.87;86.97
77106;BME280;66057;54.718;18.426;2023-02-10T08:23:56;102415.53;;;3.91;86.67
77106;BME280;66057;54.718;18.426;2023-02-10T08:26:22;102416.16;;;3.88;87.07
77106;BME280;66057;54.718;18.426;2023-02-10T08:28:49;102429.00;;;3.90;86.43
77106;BME280;66057;54.718;18.426;2023-02-10T08:31:15;102436.94;;;3.93;86.58
77106;BME280;66057;54.718;18.426;2023-02-10T08:33:41;102451.53;;;4.04;85.64
77106;BME280;66057;54.718;18.426;2023-02-10T08:36:09;102438.06;;;4.05;85.29
77106;BME280;66057;54.718;18.426;2023-02-10T08:38:36;102447.16;;;4.12;84.09
77106;BME280;66057;54.718;18.426;2023-02-10T08:41:02;102475.13;;;4.20;84.05
77106;BME280;66057;54.718;18.426;2023-02-10T08:43:28;102461.03;;;4.24;84.17
77106;BME280;66057;54.718;18.426;2023-02-10T08:45:58;102446.75;;;4.34;82.62
77106;BME280;66057;54.718;18.426;2023-02-10T08:48:25;102456.59;;;4.40;82.47
77106;BME280;66057;54.718;18.426;2023-02-10T08:50:51;102447.88;;;4.47;82.63
77106;BME280;66057;54.718;18.426;2023-02-10T08:53:19;102464.94;;;4.48;82.17
77106;BME280;66057;54.718;18.426;2023-02-10T08:55:58;102462.22;;;4.55;81.73
77106;BME280;66057;54.718;18.426;2023-02-10T08:58:24;102468.31;;;4.57;81.61
77106;BME280;66057;54.718;18.426;2023-02-10T09:00:50;102472.41;;;4.55;82.33
77106;BME280;66057;54.718;18.426;2023-02-10T09:03:17;102456.78;;;4.60;82.53
77106;BME280;66057;54.718;18.426;2023-02-10T09:05:42;102464.88;;;4.56;82.56
77106;BME280;66057;54.718;18.426;2023-02-10T09:08:12;102477.06;;;4.50;82.61
77106;BME280;66057;54.718;18.426;2023-02-10T09:10:41;102467.53;;;4.39;82.82
77106;BME280;66057;54.718;18.426;2023-02-10T09:13:07;102475.75;;;4.45;82.78
77106;BME280;66057;54.718;18.426;2023-02-10T09:15:39;102471.81;;;4.49;82.41
77106;BME280;66057;54.718;18.426;2023-02-10T09:18:06;102481.53;;;4.53;82.48
77106;BME280;66057;54.718;18.426;2023-02-10T09:20:33;102466.09;;;4.60;81.37
77106;BME280;66057;54.718;18.426;2023-02-10T09:22:59;102469.94;;;4.65;78.58
77106;BME280;66057;54.718;18.426;2023-02-10T09:25:25;102480.72;;;4.62;78.27
77106;BME280;66057;54.718;18.426;2023-02-10T09:27:52;102477.75;;;4.58;77.58
77106;BME280;66057;54.718;18.426;2023-02-10T09:30:20;102474.84;;;4.45;78.13
77106;BME280;66057;54.718;18.426;2023-02-10T09:32:47;102482.66;;;4.37;78.12
77106;BME280;66057;54.718;18.426;2023-02-10T09:35:13;102481.75;;;4.37;78.74
77106;BME280;66057;54.718;18.426;2023-02-10T09:37:39;102494.78;;;4.40;78.83
77106;BME280;66057;54.718;18.426;2023-02-10T09:40:05;102481.31;;;4.41;78.98
77106;BME280;66057;54.718;18.426;2023-02-10T09:42:51;102481.31;;;4.41;80.22
77106;BME280;66057;54.718;18.426;2023-02-10T09:45:25;102488.59;;;4.19;83.07
77106;BME280;66057;54.718;18.426;2023-02-10T09:50:59;102521.13;;;4.05;86.17
77106;BME280;66057;54.718;18.426;2023-02-10T09:53:31;102525.63;;;3.99;86.52
77106;BME280;66057;54.718;18.426;2023-02-10T09:56:01;102501.25;;;3.92;83.99
77106;BME280;66057;54.718;18.426;2023-02-10T09:58:54;102528.34;;;3.91;85.53
77106;BME280;66057;54.718;18.426;2023-02-10T10:06:32;102521.97;;;4.14;84.67
77106;BME280;66057;54.718;18.426;2023-02-10T10:09:02;102512.53;;;4.21;84.69
77106;BME280;66057;54.718;18.426;2023-02-10T10:11:37;102515.78;;;4.29;83.85
77106;BME280;66057;54.718;18.426;2023-02-10T10:14:05;102509.75;;;4.46;81.99
77106;BME280;66057;54.718;18.426;2023-02-10T10:30:18;102517.00;;;4.87;77.35
77106;BME280;66057;54.718;18.426;2023-02-10T10:32:47;102515.00;;;4.93;77.01
77106;BME280;66057;54.718;18.426;2023-02-10T10:35:21;102519.41;;;5.04;77.17
77106;BME280;66057;54.718;18.426;2023-02-10T10:37:47;102519.41;;;5.04;76.88
77106;BME280;66057;54.718;18.426;2023-02-10T10:40:17;102528.09;;;5.06;76.91
77106;BME280;66057;54.718;18.426;2023-02-10T10:42:50;102533.63;;;5.11;76.11
77106;BME280;66057;54.718;18.426;2023-02-10T10:45:35;102529.75;;;5.24;75.75
77106;BME280;66057;54.718;18.426;2023-02-10T10:48:11;102540.09;;;5.26;75.44
77106;BME280;66057;54.718;18.426;2023-02-10T10:50:39;102535.50;;;5.22;75.86
77106;BME280;66057;54.718;18.426;2023-02-10T10:53:14;102538.16;;;5.23;75.58
77106;BME280;66057;54.718;18.426;2023-02-10T10:55:45;102537.16;;;5.21;75.98
77106;BME280;66057;54.718;18.426;2023-02-10T10:58:38;102543.63;;;5.18;76.21
77106;BME280;66057;54.718;18.426;2023-02-10T11:01:05;102543.91;;;5.21;75.97
77106;BME280;66057;54.718;18.426;2023-02-10T11:03:32;102526.88;;;5.11;74.26
77106;BME280;66057;54.718;18.426;2023-02-10T11:06:03;102529.00;;;5.07;73.80
77106;BME280;66057;54.718;18.426;2023-02-10T11:09:00;102540.84;;;5.06;73.82
77106;BME280;66057;54.718;18.426;2023-02-10T11:11:37;102537.00;;;5.20;73.76
77106;BME280;66057;54.718;18.426;2023-02-10T11:16:53;102554.75;;;5.10;71.63
77106;BME280;66057;54.718;18.426;2023-02-10T11:19:25;102558.88;;;4.99;73.02
77106;BME280;66057;54.718;18.426;2023-02-10T11:21:51;102557.53;;;4.94;73.21
77106;BME280;66057;54.718;18.426;2023-02-10T11:24:18;102549.41;;;5.07;73.16
77106;BME280;66057;54.718;18.426;2023-02-10T11:27:35;102548.00;;;5.10;73.36
77106;BME280;66057;54.718;18.426;2023-02-10T11:30:00;102538.44;;;5.08;73.57
77106;BME280;66057;54.718;18.426;2023-02-10T11:32:30;102549.41;;;5.07;74.49
77106;BME280;66057;54.718;18.426;2023-02-10T11:34:59;102568.41;;;5.10;74.52
77106;BME280;66057;54.718;18.426;2023-02-10T11:37:35;102551.38;;;5.19;73.90
77106;BME280;66057;54.718;18.426;2023-02-10T11:40:05;102551.69;;;5.22;73.77
77106;BME280;66057;54.718;18.426;2023-02-10T11:42:41;102549.56;;;5.27;70.78
77106;BME280;66057;54.718;18.426;2023-02-10T11:47:36;102553.44;;;5.23;71.01
77106;BME280;66057;54.718;18.426;2023-02-10T11:50:03;102545.31;;;5.09;70.31
77106;BME280;66057;54.718;18.426;2023-02-10T11:52:30;102568.22;;;4.90;70.71
77106;BME280;66057;54.718;18.426;2023-02-10T11:54:58;102573.47;;;4.92;69.53
77106;BME280;66057;54.718;18.426;2023-02-10T11:57:52;102571.69;;;5.37;69.14
77106;BME280;66057;54.718;18.426;2023-02-10T12:00:55;102583.78;;;5.20;69.34
77106;BME280;66057;54.718;18.426;2023-02-10T12:06:13;102585.66;;;5.50;68.22
77106;BME280;66057;54.718;18.426;2023-02-10T12:22:05;102591.78;;;5.71;66.48
77106;BME280;66057;54.718;18.426;2023-02-10T12:24:53;102589.78;;;5.96;64.89
77106;BME280;66057;54.718;18.426;2023-02-10T12:27:30;102614.03;;;6.20;63.77
77106;BME280;66057;54.718;18.426;2023-02-10T12:30:06;102564.47;;;6.07;63.29
77106;BME280;66057;54.718;18.426;2023-02-10T12:35:21;102599.22;;;6.54;63.36
77106;BME280;66057;54.718;18.426;2023-02-10T12:45:57;102614.06;;;6.69;63.05
77106;BME280;66057;54.718;18.426;2023-02-10T12:48:36;102603.59;;;5.98;63.96
77106;BME280;66057;54.718;18.426;2023-02-10T12:54:11;102601.38;;;6.50;61.60
77106;BME280;66057;54.718;18.426;2023-02-10T13:01:51;102629.84;;;6.16;61.95
77106;BME280;66057;54.718;18.426;2023-02-10T13:04:27;102598.13;;;6.32;62.48
77106;BME280;66057;54.718;18.426;2023-02-10T13:07:01;102598.25;;;6.05;63.14
77106;BME280;66057;54.718;18.426;2023-02-10T13:09:42;102594.25;;;6.17;64.06
77106;BME280;66057;54.718;18.426;2023-02-10T13:12:30;102607.78;;;5.97;64.15
77106;BME280;66057;54.718;18.426;2023-02-10T13:15:11;102602.56;;;6.25;63.88
77106;BME280;66057;54.718;18.426;2023-02-10T13:17:49;102605.50;;;6.29;63.96
77106;BME280;66057;54.718;18.426;2023-02-10T13:20:34;102600.41;;;6.29;64.04
77106;BME280;66057;54.718;18.426;2023-02-10T13:23:23;102607.72;;;6.06;64.68
77106;BME280;66057;54.718;18.426;2023-02-10T13:28:33;102609.41;;;6.16;64.49
77106;BME280;66057;54.718;18.426;2023-02-10T13:33:45;102608.28;;;5.75;66.29
77106;BME280;66057;54.718;18.426;2023-02-10T13:36:22;102611.25;;;5.79;66.40
77106;BME280;66057;54.718;18.426;2023-02-10T13:39:06;102612.91;;;5.60;66.79
77106;BME280;66057;54.718;18.426;2023-02-10T13:41:41;102606.69;;;5.48;68.20
77106;BME280;66057;54.718;18.426;2023-02-10T13:47:29;102620.00;;;5.91;66.74
77106;BME280;66057;54.718;18.426;2023-02-10T13:50:04;102601.28;;;5.82;66.76
77106;BME280;66057;54.718;18.426;2023-02-10T13:52:33;102602.03;;;5.81;66.77
77106;BME280;66057;54.718;18.426;2023-02-10T13:57:39;102612.59;;;5.57;69.22
77106;BME280;66057;54.718;18.426;2023-02-10T14:00:22;102602.69;;;5.79;68.00
77106;BME280;66057;54.718;18.426;2023-02-10T14:03:00;102611.00;;;5.86;67.40
77106;BME280;66057;54.718;18.426;2023-02-10T14:05:30;102617.59;;;5.74;68.08
77106;BME280;66057;54.718;18.426;2023-02-10T14:07:56;102603.72;;;5.62;67.31
77106;BME280;66057;54.718;18.426;2023-02-10T14:12:56;102612.41;;;5.64;67.86
77106;BME280;66057;54.718;18.426;2023-02-10T14:15:41;102610.59;;;5.44;68.24
77106;BME280;66057;54.718;18.426;2023-02-10T14:18:25;102612.38;;;5.26;68.75
77106;BME280;66057;54.718;18.426;2023-02-10T14:20:56;102619.31;;;5.19;68.85
77106;BME280;66057;54.718;18.426;2023-02-10T14:23:23;102610.19;;;4.94;70.38
77106;BME280;66057;54.718;18.426;2023-02-10T14:25:55;102616.81;;;4.83;71.21
77106;BME280;66057;54.718;18.426;2023-02-10T14:28:25;102628.59;;;4.64;72.16
77106;BME280;66057;54.718;18.426;2023-02-10T14:31:00;102600.19;;;4.51;73.60
77106;BME280;66057;54.718;18.426;2023-02-10T14:33:28;102605.75;;;4.38;74.28
77106;BME280;66057;54.718;18.426;2023-02-10T14:35:57;102621.94;;;4.38;74.15
77106;BME280;66057;54.718;18.426;2023-02-10T14:38:28;102597.84;;;4.35;74.18
77106;BME280;66057;54.718;18.426;2023-02-10T14:40:56;102602.50;;;4.30;74.73
77106;BME280;66057;54.718;18.426;2023-02-10T14:43:25;102592.00;;;4.27;75.12